Terminal Aerodrome Forecast
Issued by NWS Spokane, WA

Home | Current Version | Previous Version | Text Only | Print | Product List | Glossary On
Versions: 1 2 3 4 5 6 7 8 9 10 11 12 13 14 15 16 17 18 19 20 21 22 23 24 25
000
FTUS46 KOTX 291134
TAFLWS
TAF
KLWS 291134Z 2912/3012 13002KT P6SM SCT120 BKN200
     FM291800 31007KT P6SM SCT060 BKN090
     FM292300 30012G18KT P6SM BKN070
     FM300300 26008KT P6SM SCT050 BKN090
     FM300900 22004KT P6SM SKC=

USA.gov is the U.S. government's official web portal to all federal, state and local government web resources and services.